Time;durP1;ratioP1;P1;durP2;ratioP2;P2;SDS_P1;SDS_P2;PMS_P1;PMS_P2;Temp;Humidity;BMP_temperature;BMP_pressure;BME280_temperature;BME280_humidity;BME280_pressure;Samples;Min_cycle;Max_cycle;Signal;HPM_P1;HPM_P2
2023/05/07 00:01:35;;;;;;;15.47;13.90;;;10.20;99.90;;;;;;5051484;28;20839;-50
2023/05/07 00:04:03;;;;;;;17.03;15.43;;;10.10;99.90;;;;;;5051515;28;20799;-50
2023/05/07 00:06:29;;;;;;;16.63;14.77;;;10.80;99.90;;;;;;5051409;28;20449;-51
2023/05/07 00:08:57;;;;;;;17.03;15.03;;;10.40;99.90;;;;;;5051078;28;20406;-50
2023/05/07 00:11:24;;;;;;;15.00;13.60;;;10.60;99.90;;;;;;5051303;28;20889;-51
2023/05/07 00:13:50;;;;;;;14.70;13.20;;;10.50;99.90;;;;;;5051461;28;20448;-51
2023/05/07 00:16:17;;;;;;;15.90;14.07;;;10.60;99.90;;;;;;5051265;28;20442;-50
2023/05/07 00:18:47;;;;;;;18.67;14.00;;;10.70;99.90;;;;;;5050888;28;20431;-51
2023/05/07 00:21:13;;;;;;;15.10;13.10;;;10.80;99.90;;;;;;5033351;28;20425;-51
2023/05/07 00:23:40;;;;;;;17.30;14.07;;;10.70;99.90;;;;;;5051158;28;20416;-50
2023/05/07 00:26:07;;;;;;;16.53;14.80;;;10.30;99.90;;;;;;5051247;28;20410;-50
2023/05/07 00:28:33;;;;;;;16.53;14.83;;;10.30;99.90;;;;;;5050868;28;20406;-50
2023/05/07 00:31:00;;;;;;;14.27;12.90;;;10.80;99.90;;;;;;5033107;28;20481;-52
2023/05/07 00:33:27;;;;;;;14.90;13.40;;;10.50;99.90;;;;;;5051044;28;20401;-51
2023/05/07 00:35:55;;;;;;;13.60;12.20;;;10.70;99.90;;;;;;5036593;28;20472;-52
2023/05/07 00:38:21;;;;;;;14.67;13.17;;;10.40;99.90;;;;;;5036310;28;20420;-50
2023/05/07 00:40:48;;;;;;;15.30;13.00;;;10.40;99.90;;;;;;5054550;28;20455;-52
2023/05/07 00:43:15;;;;;;;15.00;13.50;;;10.70;99.90;;;;;;5036865;28;20429;-50
2023/05/07 00:45:41;;;;;;;15.30;13.73;;;10.40;99.90;;;;;;5036637;28;20439;-51
2023/05/07 00:48:08;;;;;;;16.13;13.17;;;10.70;99.90;;;;;;5054115;28;20437;-51
2023/05/07 00:50:34;;;;;;;15.73;14.20;;;10.70;99.90;;;;;;5054552;28;20817;-51
2023/05/07 00:53:03;;;;;;;15.13;13.70;;;10.50;99.90;;;;;;5036467;28;20413;-50
2023/05/07 00:55:30;;;;;;;18.90;13.87;;;10.60;99.90;;;;;;5054656;28;20413;-50
2023/05/07 00:57:57;;;;;;;14.73;13.23;;;10.40;99.90;;;;;;5036735;28;20794;-51
2023/05/07 01:00:25;;;;;;;14.43;13.03;;;10.90;99.90;;;;;;5053813;28;20432;-52
2023/05/07 01:02:51;;;;;;;15.27;13.53;;;10.60;99.90;;;;;;5054367;28;20434;-50
2023/05/07 01:05:19;;;;;;;15.87;14.20;;;10.70;99.90;;;;;;5036457;28;20898;-50
2023/05/07 01:07:47;;;;;;;15.40;13.13;;;10.80;99.90;;;;;;5054147;28;20865;-51
2023/05/07 01:10:15;;;;;;;15.47;13.97;;;10.10;99.90;;;;;;5035850;28;20448;-51
2023/05/07 01:12:44;;;;;;;17.63;13.23;;;10.40;99.90;;;;;;5054162;28;20408;-51
2023/05/07 01:15:11;;;;;;;14.70;13.20;;;10.40;99.90;;;;;;5036289;28;21048;-51
2023/05/07 01:17:40;;;;;;;19.93;13.30;;;10.90;99.90;;;;;;5036202;28;20429;-51
2023/05/07 01:20:11;;;;;;;14.60;13.20;;;10.60;99.90;;;;;;5035752;28;20450;-51
2023/05/07 01:22:40;;;;;;;17.77;12.80;;;10.60;99.90;;;;;;5036007;28;20453;-51
2023/05/07 01:25:08;;;;;;;14.23;12.87;;;11.00;99.90;;;;;;5036044;28;21065;-51
2023/05/07 01:27:37;;;;;;;14.60;12.80;;;10.70;99.90;;;;;;5035982;28;20430;-50
2023/05/07 01:30:05;;;;;;;14.50;12.57;;;10.60;99.90;;;;;;5053466;28;20462;-50
2023/05/07 01:32:36;;;;;;;14.23;12.67;;;10.50;99.90;;;;;;5035794;28;20992;-51
2023/05/07 01:35:06;;;;;;;15.10;13.50;;;10.50;99.90;;;;;;5035995;28;20451;-51
2023/05/07 01:37:34;;;;;;;17.00;13.20;;;10.60;99.90;;;;;;5035767;28;20438;-50
2023/05/07 01:40:02;;;;;;;14.07;12.67;;;10.50;99.90;;;;;;5015383;28;20461;-50
2023/05/07 01:42:30;;;;;;;14.70;13.13;;;10.60;99.90;;;;;;5015908;28;20426;-50
2023/05/07 01:44:57;;;;;;;13.63;12.33;;;10.80;99.90;;;;;;5033512;28;20417;-51
2023/05/07 01:47:24;;;;;;;15.80;14.30;;;11.00;99.90;;;;;;5043068;28;20908;-52
2023/05/07 01:49:51;;;;;;;14.30;12.83;;;10.70;99.90;;;;;;5035163;28;20448;-51
2023/05/07 01:52:18;;;;;;;15.10;12.33;;;10.80;99.90;;;;;;5035346;28;20825;-50
2023/05/07 01:54:45;;;;;;;13.87;12.27;;;10.50;99.90;;;;;;5035509;28;20959;-51
2023/05/07 01:57:13;;;;;;;14.00;12.60;;;10.10;99.90;;;;;;5035692;28;20471;-51
2023/05/07 01:59:40;;;;;;;17.87;13.27;;;10.60;99.90;;;;;;5034712;28;20495;-50
2023/05/07 02:02:06;;;;;;;13.97;12.57;;;10.40;99.90;;;;;;5053294;28;20794;-51
2023/05/07 02:04:35;;;;;;;13.43;12.03;;;10.50;99.90;;;;;;5035519;28;20541;-51
2023/05/07 02:07:01;;;;;;;14.87;13.27;;;11.00;99.90;;;;;;5053114;28;20442;-51
2023/05/07 02:09:29;;;;;;;13.07;11.77;;;10.60;99.90;;;;;;5034844;28;20477;-50
2023/05/07 02:11:56;;;;;;;14.30;12.90;;;10.70;99.90;;;;;;5035309;28;20559;-50
2023/05/07 02:14:25;;;;;;;15.27;13.03;;;10.40;99.90;;;;;;5035101;28;20540;-50
2023/05/07 02:16:52;;;;;;;15.20;13.70;;;10.50;99.90;;;;;;5035244;28;20433;-50
2023/05/07 02:19:20;;;;;;;14.77;13.03;;;10.20;99.90;;;;;;5034720;28;20478;-49
2023/05/07 02:21:47;;;;;;;15.80;14.10;;;10.60;99.90;;;;;;5035166;28;20436;-50
2023/05/07 02:24:14;;;;;;;13.93;12.63;;;10.10;99.90;;;;;;5035255;28;20424;-51
2023/05/07 02:26:41;;;;;;;15.53;13.93;;;10.80;99.90;;;;;;5034882;28;20483;-51
2023/05/07 02:29:07;;;;;;;13.23;11.80;;;10.30;99.90;;;;;;5034632;28;20908;-51
2023/05/07 02:31:35;;;;;;;15.03;12.40;;;10.60;99.90;;;;;;5034827;28;20873;-50
2023/05/07 02:34:02;;;;;;;15.37;13.20;;;10.50;99.90;;;;;;5052924;28;20404;-52
2023/05/07 02:36:28;;;;;;;14.23;12.77;;;10.50;99.90;;;;;;5052671;28;20526;-52
2023/05/07 02:39:02;;;;;;;15.90;14.17;;;10.40;99.90;;;;;;5034054;28;21916;-50
2023/05/07 02:41:29;;;;;;;15.23;13.63;;;11.00;99.90;;;;;;5034475;28;20436;-51
2023/05/07 02:43:55;;;;;;;13.10;11.50;;;10.30;99.90;;;;;;5052563;28;20462;-51
2023/05/07 02:46:22;;;;;;;14.23;12.73;;;10.40;99.90;;;;;;5034452;28;20429;-50
2023/05/07 02:48:59;;;;;;;13.37;12.07;;;10.70;99.90;;;;;;5034152;28;20486;-51
2023/05/07 02:51:27;;;;;;;14.17;12.77;;;10.40;99.90;;;;;;5052174;28;20814;-51
2023/05/07 02:53:56;;;;;;;13.60;12.30;;;10.70;99.90;;;;;;5034469;28;20474;-50
2023/05/07 02:56:23;;;;;;;14.07;12.87;;;10.20;99.90;;;;;;5034523;28;20425;-50
2023/05/07 02:58:49;;;;;;;14.70;12.87;;;10.60;99.90;;;;;;5051876;28;20409;-50
2023/05/07 03:01:17;;;;;;;12.70;11.27;;;10.80;99.90;;;;;;5034318;28;20438;-50
2023/05/07 03:03:54;;;;;;;14.73;13.07;;;10.50;99.90;;;;;;5034545;28;20458;-51
2023/05/07 03:06:22;;;;;;;13.90;12.60;;;10.30;99.90;;;;;;5034308;28;20466;-50
2023/05/07 03:08:49;;;;;;;14.03;12.63;;;10.70;99.90;;;;;;5051864;28;20417;-50
2023/05/07 03:11:16;;;;;;;14.63;13.13;;;10.40;99.90;;;;;;5034381;28;20810;-50
2023/05/07 03:13:42;;;;;;;12.00;10.80;;;10.50;99.90;;;;;;5034200;28;20418;-51
2023/05/07 03:16:09;;;;;;;12.50;11.30;;;10.70;99.90;;;;;;5034254;28;20429;-51
2023/05/07 03:18:36;;;;;;;13.90;12.50;;;10.10;99.90;;;;;;5033841;28;20490;-51
2023/05/07 03:21:03;;;;;;;14.50;12.97;;;10.50;99.90;;;;;;5034095;28;20446;-52
2023/05/07 03:23:31;;;;;;;11.50;10.40;;;10.40;99.90;;;;;;5034309;28;20433;-51
2023/05/07 03:25:58;;;;;;;12.50;11.20;;;10.10;99.90;;;;;;5051960;28;20435;-51
2023/05/07 03:28:24;;;;;;;12.10;11.00;;;10.30;99.90;;;;;;5033585;28;20927;-50
2023/05/07 03:30:56;;;;;;;11.73;10.63;;;10.70;99.90;;;;;;5033665;28;20502;-50
2023/05/07 03:33:23;;;;;;;12.60;11.40;;;10.60;99.90;;;;;;5033904;28;20418;-51
2023/05/07 03:35:50;;;;;;;13.33;11.50;;;10.80;99.90;;;;;;5051778;28;20937;-51
2023/05/07 03:38:21;;;;;;;14.10;12.70;;;10.40;99.90;;;;;;5033605;28;20457;-50
2023/05/07 03:40:49;;;;;;;12.60;11.43;;;10.30;99.90;;;;;;5051757;28;20462;-51
2023/05/07 03:43:16;;;;;;;12.67;11.43;;;10.50;99.90;;;;;;5033997;28;20443;-50
2023/05/07 03:45:48;;;;;;;12.87;11.57;;;10.70;99.90;;;;;;5033800;28;20479;-51
2023/05/07 03:48:19;;;;;;;12.30;11.07;;;10.60;99.90;;;;;;5051377;28;20957;-51
2023/05/07 03:50:47;;;;;;;14.40;11.60;;;10.60;99.90;;;;;;5033691;28;20499;-51
2023/05/07 03:53:15;;;;;;;14.77;11.70;;;10.60;99.90;;;;;;5033804;28;20481;-50
2023/05/07 03:55:42;;;;;;;12.37;11.13;;;10.40;99.90;;;;;;5033738;28;20420;-50
2023/05/07 03:58:10;;;;;;;12.93;11.53;;;10.40;99.90;;;;;;5051524;28;20421;-51
2023/05/07 04:00:38;;;;;;;11.30;10.20;;;10.00;99.90;;;;;;5033599;28;20520;-50
2023/05/07 04:03:11;;;;;;;14.40;12.77;;;10.40;99.90;;;;;;5033740;28;20840;-51
2023/05/07 04:05:38;;;;;;;14.70;11.00;;;10.40;99.90;;;;;;5051491;28;20412;-51
2023/05/07 04:08:05;;;;;;;12.97;11.60;;;10.40;99.90;;;;;;5033462;28;20555;-51
2023/05/07 04:10:38;;;;;;;12.77;11.57;;;10.40;99.90;;;;;;5036856;28;20468;-51
2023/05/07 04:13:10;;;;;;;13.83;10.87;;;10.60;99.90;;;;;;5037235;28;20545;-51
2023/05/07 04:15:37;;;;;;;12.30;11.03;;;10.30;99.90;;;;;;5037426;28;20582;-51
2023/05/07 04:18:07;;;;;;;17.97;11.53;;;10.50;99.90;;;;;;5037050;28;20472;-51
2023/05/07 04:20:36;;;;;;;14.83;10.87;;;10.40;99.90;;;;;;5037156;28;20990;-50
2023/05/07 04:23:03;;;;;;;13.03;10.90;;;10.50;99.90;;;;;;5037179;28;20418;-50
2023/05/07 04:25:30;;;;;;;11.47;9.40;;;10.60;99.90;;;;;;5037254;28;20425;-50
2023/05/07 04:28:05;;;;;;;12.00;10.80;;;10.10;99.90;;;;;;5036959;28;20416;-50
2023/05/07 04:30:33;;;;;;;11.60;10.50;;;10.60;99.90;;;;;;5037305;28;20883;-50
2023/05/07 04:33:02;;;;;;;12.00;10.73;;;10.80;99.90;;;;;;5037445;28;21027;-51
2023/05/07 04:35:30;;;;;;;11.13;10.00;;;10.50;99.90;;;;;;5036957;28;20421;-50
2023/05/07 04:37:58;;;;;;;10.17;9.20;;;10.90;99.90;;;;;;5037236;28;20444;-50
2023/05/07 04:40:25;;;;;;;10.10;9.10;;;10.90;99.90;;;;;;5054468;28;20556;-50
2023/05/07 04:42:52;;;;;;;12.57;9.83;;;10.40;99.90;;;;;;5037091;28;20439;-51
2023/05/07 04:45:20;;;;;;;10.73;9.43;;;10.40;99.90;;;;;;5054963;28;20821;-50
2023/05/07 04:47:49;;;;;;;11.57;10.47;;;10.40;99.90;;;;;;5036925;28;20453;-50
2023/05/07 04:50:17;;;;;;;10.23;9.23;;;10.60;99.90;;;;;;5036352;28;21028;-51
2023/05/07 04:52:45;;;;;;;11.10;10.00;;;10.70;99.90;;;;;;5036504;28;20949;-51
2023/05/07 04:55:12;;;;;;;11.10;10.00;;;10.60;99.90;;;;;;5036648;28;20508;-51
2023/05/07 04:57:41;;;;;;;11.40;9.33;;;10.70;99.90;;;;;;5036871;28;20430;-52
2023/05/07 05:00:10;;;;;;;10.27;9.20;;;10.60;99.90;;;;;;5036388;28;20441;-51
2023/05/07 05:02:38;;;;;;;10.20;9.17;;;10.50;99.90;;;;;;5036699;28;20436;-51
2023/05/07 05:05:07;;;;;;;10.03;8.53;;;10.00;99.90;;;;;;5036351;28;20462;-50
2023/05/07 05:07:34;;;;;;;10.30;9.10;;;10.60;99.90;;;;;;5036630;28;20429;-51
2023/05/07 05:10:03;;;;;;;10.40;9.40;;;10.80;99.90;;;;;;5035962;28;20470;-51
2023/05/07 05:12:31;;;;;;;9.83;8.87;;;10.80;99.90;;;;;;5036249;28;20446;-51
2023/05/07 05:15:00;;;;;;;9.37;8.23;;;10.50;99.90;;;;;;5036202;28;20429;-51
2023/05/07 05:17:27;;;;;;;9.10;8.20;;;10.90;99.90;;;;;;5036323;28;20451;-51
2023/05/07 05:19:53;;;;;;;10.00;8.40;;;10.50;99.90;;;;;;5035314;28;20438;-51
2023/05/07 05:22:21;;;;;;;11.07;9.17;;;11.10;99.90;;;;;;5036171;28;20436;-51
2023/05/07 05:24:48;;;;;;;9.90;9.00;;;11.10;99.90;;;;;;5036124;28;20449;-51
2023/05/07 05:27:14;;;;;;;10.53;9.40;;;10.90;99.90;;;;;;5054075;28;20754;-51
2023/05/07 05:29:41;;;;;;;10.40;9.10;;;10.90;99.90;;;;;;5035582;28;20882;-51
2023/05/07 05:32:08;;;;;;;9.93;8.37;;;11.00;99.90;;;;;;5053685;28;21019;-50
2023/05/07 05:34:35;;;;;;;9.50;8.40;;;10.90;99.90;;;;;;5036037;28;20425;-51
2023/05/07 05:37:03;;;;;;;10.93;9.67;;;11.20;99.90;;;;;;5036214;28;20484;-51
2023/05/07 05:39:31;;;;;;;10.70;9.47;;;11.30;99.90;;;;;;5054698;28;20441;-51
2023/05/07 05:41:58;;;;;;;9.40;8.50;;;10.90;99.90;;;;;;5036523;28;20464;-50
2023/05/07 05:44:25;;;;;;;10.03;9.03;;;11.50;99.90;;;;;;5053788;28;20440;-50
2023/05/07 05:46:54;;;;;;;10.73;9.63;;;11.70;99.90;;;;;;5035353;28;20448;-50
2023/05/07 05:49:22;;;;;;;13.17;8.87;;;11.30;99.90;;;;;;5035324;28;20878;-51
2023/05/07 05:51:49;;;;;;;11.03;9.00;;;11.80;99.90;;;;;;5035380;28;20519;-50
2023/05/07 05:54:17;;;;;;;8.80;7.90;;;11.60;99.90;;;;;;5035494;28;20450;-50
2023/05/07 05:56:45;;;;;;;8.60;7.70;;;11.70;99.90;;;;;;5053339;28;20784;-51
2023/05/07 05:59:12;;;;;;;11.27;9.30;;;11.60;99.90;;;;;;5053014;28;20450;-50
2023/05/07 06:01:39;;;;;;;12.27;8.40;;;11.90;99.90;;;;;;5035705;28;20447;-50
2023/05/07 06:04:07;;;;;;;10.43;9.43;;;12.40;99.90;;;;;;5035494;28;20451;-49
2023/05/07 06:06:34;;;;;;;9.10;8.20;;;12.50;99.90;;;;;;5035417;28;20428;-50
2023/05/07 06:09:02;;;;;;;9.23;8.20;;;12.60;99.90;;;;;;5034981;28;20423;-50
2023/05/07 06:11:36;;;;;;;12.67;8.80;;;12.30;99.90;;;;;;5035150;28;20461;-52
2023/05/07 06:14:04;;;;;;;10.23;8.00;;;12.60;99.90;;;;;;5053352;28;20569;-51
2023/05/07 06:16:31;;;;;;;10.93;9.13;;;12.10;99.90;;;;;;5035051;28;20431;-51
2023/05/07 06:18:58;;;;;;;10.10;8.10;;;12.60;99.90;;;;;;5034560;28;20970;-50
2023/05/07 06:21:25;;;;;;;8.13;7.33;;;12.40;99.90;;;;;;5034844;28;20417;-51
2023/05/07 06:23:52;;;;;;;8.90;8.07;;;12.50;99.90;;;;;;5034731;28;20944;-50
2023/05/07 06:26:18;;;;;;;9.07;8.17;;;12.80;99.90;;;;;;5034620;28;20447;-49
2023/05/07 06:28:47;;;;;;;10.13;8.90;;;12.70;99.90;;;;;;5034391;28;20453;-50
2023/05/07 06:31:20;;;;;;;9.37;8.33;;;13.00;99.90;;;;;;5034492;28;20521;-50
2023/05/07 06:33:52;;;;;;;7.53;6.80;;;13.30;99.90;;;;;;5034436;28;20486;-51
2023/05/07 06:36:20;;;;;;;8.33;7.47;;;12.90;99.90;;;;;;5034669;28;20522;-49
2023/05/07 06:38:47;;;;;;;8.17;7.47;;;12.80;99.90;;;;;;5034061;28;20472;-50
2023/05/07 06:41:15;;;;;;;8.23;7.47;;;13.00;99.90;;;;;;5034593;28;20442;-51
2023/05/07 06:43:42;;;;;;;9.00;8.10;;;12.30;99.90;;;;;;5034575;28;20428;-50
2023/05/07 06:46:31;;;;;;;8.67;7.50;;;13.10;99.90;;;;;;5034538;28;20451;-50
2023/05/07 06:48:58;;;;;;;8.17;7.37;;;13.30;99.90;;;;;;5033830;28;20996;-51
2023/05/07 06:51:26;;;;;;;9.23;8.33;;;13.30;99.90;;;;;;5034359;28;20447;-50
2023/05/07 06:53:53;;;;;;;7.33;6.63;;;13.40;99.90;;;;;;5034324;28;20459;-52
2023/05/07 06:56:20;;;;;;;7.87;6.10;;;13.10;99.90;;;;;;5034257;28;20419;-49
2023/05/07 06:58:47;;;;;;;7.00;6.20;;;13.10;99.90;;;;;;5033728;28;20458;-51
2023/05/07 07:01:14;;;;;;;7.00;6.40;;;13.00;99.90;;;;;;5034140;28;20451;-50
2023/05/07 07:03:45;;;;;;;6.97;6.30;;;13.20;99.90;;;;;;5034170;28;20449;-51
2023/05/07 07:06:11;;;;;;;7.90;6.30;;;13.30;99.90;;;;;;5034465;28;20849;-50
2023/05/07 07:08:38;;;;;;;7.73;6.33;;;13.30;99.90;;;;;;5033862;28;20450;-52
2023/05/07 07:11:06;;;;;;;6.60;5.90;;;13.30;99.90;;;;;;5034380;28;20592;-50
2023/05/07 07:13:32;;;;;;;7.93;6.37;;;13.20;99.90;;;;;;5052235;28;20768;-50
2023/05/07 07:16:00;;;;;;;7.37;5.37;;;13.20;99.90;;;;;;5034171;28;20455;-51
2023/05/07 07:18:26;;;;;;;6.20;5.57;;;13.70;99.90;;;;;;5033826;28;20458;-50
2023/05/07 07:20:55;;;;;;;7.93;6.27;;;13.10;99.90;;;;;;5033745;28;20465;-49
2023/05/07 07:23:22;;;;;;;6.30;5.57;;;13.00;99.90;;;;;;5034135;28;20460;-50
2023/05/07 07:25:49;;;;;;;6.10;5.20;;;13.40;99.90;;;;;;5033911;28;20431;-51
2023/05/07 07:28:15;;;;;;;4.83;4.30;;;13.70;99.90;;;;;;5033427;28;20439;-50
2023/05/07 07:30:43;;;;;;;6.53;5.83;;;13.50;99.90;;;;;;5033699;28;20440;-50
2023/05/07 07:33:10;;;;;;;5.57;5.00;;;13.30;99.90;;;;;;5033929;28;20483;-51
2023/05/07 07:35:38;;;;;;;6.00;4.73;;;13.80;99.90;;;;;;5033751;28;20421;-51
2023/05/07 07:38:07;;;;;;;5.90;4.80;;;13.40;99.90;;;;;;5033288;28;20879;-50
2023/05/07 07:40:35;;;;;;;5.30;4.70;;;13.40;99.90;;;;;;5033503;28;20513;-50
2023/05/07 07:43:02;;;;;;;6.67;5.10;;;13.60;99.90;;;;;;5034520;28;20421;-50
2023/05/07 07:45:30;;;;;;;5.73;5.17;;;13.90;99.90;;;;;;5037515;28;20812;-49
2023/05/07 07:47:56;;;;;;;7.50;6.53;;;13.90;99.90;;;;;;5037505;28;20436;-50
2023/05/07 07:50:23;;;;;;;6.90;5.23;;;13.50;99.90;;;;;;5037229;28;20460;-49
2023/05/07 07:52:50;;;;;;;7.10;5.30;;;13.20;99.90;;;;;;5037580;28;20505;-50
2023/05/07 07:55:22;;;;;;;5.40;4.60;;;13.50;99.90;;;;;;5037684;28;20452;-49
2023/05/07 07:57:51;;;;;;;5.00;4.30;;;13.10;99.90;;;;;;5037343;28;20464;-50
2023/05/07 08:00:18;;;;;;;4.30;3.57;;;13.40;99.90;;;;;;5037083;28;20465;-50
2023/05/07 08:02:45;;;;;;;6.73;4.60;;;13.40;99.90;;;;;;5055573;28;20407;-51
2023/05/07 08:05:20;;;;;;;5.10;3.93;;;12.40;99.90;;;;;;5037425;28;20423;-50
2023/05/07 08:07:51;;;;;;;5.20;4.00;;;13.00;99.90;;;;;;5037439;28;20428;-50
2023/05/07 08:10:22;;;;;;;5.50;4.40;;;12.80;99.90;;;;;;5037291;28;20448;-50
2023/05/07 08:12:52;;;;;;;4.53;4.00;;;13.10;99.90;;;;;;5037359;28;20885;-50
2023/05/07 08:15:20;;;;;;;5.87;4.30;;;13.10;99.90;;;;;;5037125;28;20452;-50
2023/05/07 08:17:47;;;;;;;7.60;4.27;;;13.30;99.90;;;;;;5037422;28;20517;-51
2023/05/07 08:20:15;;;;;;;4.00;3.60;;;12.80;99.90;;;;;;5036888;28;20477;-50
2023/05/07 08:22:42;;;;;;;4.80;3.53;;;13.70;99.90;;;;;;5037323;28;20478;-51
2023/05/07 08:25:10;;;;;;;4.20;3.57;;;13.80;99.90;;;;;;5037238;28;20434;-51
2023/05/07 08:27:38;;;;;;;8.80;4.13;;;13.30;99.90;;;;;;5037070;28;20424;-50
2023/05/07 08:30:06;;;;;;;4.00;3.13;;;14.00;99.90;;;;;;5054625;28;20448;-50
2023/05/07 08:32:32;;;;;;;4.37;3.97;;;13.60;99.90;;;;;;5036984;28;20464;-51
2023/05/07 08:34:59;;;;;;;4.63;4.17;;;13.40;99.90;;;;;;5054956;28;20430;-50
2023/05/07 08:37:26;;;;;;;3.73;3.27;;;13.70;99.90;;;;;;5037247;28;20611;-51
2023/05/07 08:39:53;;;;;;;4.93;3.60;;;13.90;99.90;;;;;;5053666;28;20466;-50
2023/05/07 08:42:24;;;;;;;3.90;3.50;;;14.30;99.90;;;;;;5036856;28;20552;-51
2023/05/07 08:44:54;;;;;;;4.87;3.40;;;13.90;99.80;;;;;;5037325;28;20460;-52
2023/05/07 08:47:30;;;;;;;5.80;4.10;;;13.40;99.20;;;;;;5054792;28;20433;-49
2023/05/07 08:50:00;;;;;;;4.33;3.93;;;14.30;99.70;;;;;;5036312;28;20448;-52
2023/05/07 08:52:28;;;;;;;4.60;4.10;;;14.30;99.70;;;;;;5036385;28;20449;-50
2023/05/07 08:54:55;;;;;;;6.00;4.13;;;14.20;99.60;;;;;;5053685;28;20528;-51
2023/05/07 08:57:24;;;;;;;8.37;3.80;;;14.20;99.40;;;;;;5036285;28;20825;-52
2023/05/07 08:59:53;;;;;;;4.10;3.40;;;14.60;99.60;;;;;;5035737;28;20444;-52
2023/05/07 09:02:20;;;;;;;6.00;3.90;;;14.90;99.40;;;;;;5036278;28;20944;-51
2023/05/07 09:04:47;;;;;;;6.97;3.40;;;14.60;99.40;;;;;;5036084;28;20454;-51
2023/05/07 09:07:14;;;;;;;9.57;4.00;;;14.90;99.30;;;;;;5054004;28;20538;-50
2023/05/07 09:09:45;;;;;;;4.60;3.80;;;14.70;99.00;;;;;;5035714;28;20441;-50
2023/05/07 09:12:12;;;;;;;4.67;3.30;;;15.30;98.90;;;;;;5035363;28;20425;-51
2023/05/07 09:14:39;;;;;;;3.20;2.90;;;15.30;98.80;;;;;;5053944;28;20467;-51
2023/05/07 09:17:07;;;;;;;4.07;3.40;;;15.10;98.20;;;;;;5035867;28;20450;-51
2023/05/07 09:19:34;;;;;;;3.40;2.83;;;14.90;97.70;;;;;;5035597;28;20538;-50
2023/05/07 09:22:06;;;;;;;4.10;3.57;;;14.80;97.60;;;;;;5035848;28;20419;-51
2023/05/07 09:24:48;;;;;;;5.53;3.63;;;15.30;97.80;;;;;;5035919;28;20440;-50
2023/05/07 09:27:15;;;;;;;4.93;3.37;;;15.50;97.60;;;;;;5035902;28;20519;-52
2023/05/07 09:29:44;;;;;;;4.93;3.37;;;15.20;97.50;;;;;;5035484;28;20540;-50
2023/05/07 09:32:14;;;;;;;5.33;3.40;;;15.80;97.60;;;;;;5035794;28;20425;-50
2023/05/07 09:34:42;;;;;;;5.23;4.00;;;15.30;97.30;;;;;;5035185;28;20478;-51
2023/05/07 09:37:10;;;;;;;4.23;3.30;;;15.10;97.20;;;;;;5035714;28;20413;-51
2023/05/07 09:39:41;;;;;;;5.00;3.57;;;15.50;97.40;;;;;;5034879;28;20453;-51
2023/05/07 09:42:08;;;;;;;5.30;4.20;;;15.60;96.70;;;;;;5035393;28;20424;-51
2023/05/07 09:44:36;;;;;;;5.00;3.93;;;15.80;96.90;;;;;;5035753;28;20835;-52
2023/05/07 09:47:06;;;;;;;4.70;3.90;;;15.70;96.50;;;;;;5035123;28;20991;-51
2023/05/07 09:49:42;;;;;;;5.10;3.63;;;15.20;96.50;;;;;;5035028;28;20577;-51
2023/05/07 09:52:11;;;;;;;7.50;3.33;;;14.70;96.10;;;;;;5035348;28;20421;-50
2023/05/07 09:54:46;;;;;;;9.03;3.57;;;15.50;96.80;;;;;;5035075;28;20535;-52
2023/05/07 09:57:14;;;;;;;4.27;3.00;;;14.80;96.50;;;;;;5035189;28;20794;-51
2023/05/07 09:59:44;;;;;;;3.80;3.40;;;15.20;96.90;;;;;;5034775;28;20480;-51
2023/05/07 10:02:16;;;;;;;2.97;2.47;;;15.00;97.00;;;;;;5035254;28;20455;-51
2023/05/07 10:04:50;;;;;;;3.40;2.43;;;15.10;96.70;;;;;;5035150;28;20425;-51
2023/05/07 10:07:21;;;;;;;2.70;2.10;;;14.80;96.10;;;;;;5052292;28;20483;-51
2023/05/07 10:09:51;;;;;;;4.13;2.90;;;15.70;96.20;;;;;;5034608;28;20479;-51
2023/05/07 10:12:25;;;;;;;4.90;2.60;;;15.50;95.70;;;;;;5034852;28;20428;-51
2023/05/07 10:14:53;;;;;;;4.33;2.60;;;16.00;95.40;;;;;;5034831;28;20479;-51
2023/05/07 10:17:21;;;;;;;2.90;2.47;;;15.80;95.10;;;;;;5034887;28;20460;-51
2023/05/07 10:19:51;;;;;;;3.67;2.17;;;16.10;94.80;;;;;;5034173;28;20449;-51
2023/05/07 10:22:19;;;;;;;3.33;2.37;;;16.30;94.60;;;;;;5034585;28;20452;-51
2023/05/07 10:24:53;;;;;;;3.40;2.13;;;16.60;94.10;;;;;;5052394;28;20932;-52
2023/05/07 10:27:22;;;;;;;3.30;2.40;;;16.50;93.50;;;;;;5034732;28;20975;-52
2023/05/07 10:30:00;;;;;;;7.87;2.10;;;16.40;93.30;;;;;;5034199;28;20914;-50
2023/05/07 10:32:37;;;;;;;2.60;1.83;;;16.50;92.90;;;;;;5052421;28;20448;-52
2023/05/07 10:35:12;;;;;;;4.37;2.30;;;16.70;92.70;;;;;;5034422;28;20493;-51
2023/05/07 10:37:39;;;;;;;3.00;2.00;;;16.70;92.70;;;;;;5034618;28;20533;-51
2023/05/07 10:40:07;;;;;;;3.47;2.67;;;16.40;92.40;;;;;;5033931;28;20454;-51
2023/05/07 10:42:34;;;;;;;5.50;2.27;;;16.70;92.50;;;;;;5033981;28;20461;-51
2023/05/07 10:45:13;;;;;;;3.97;2.60;;;16.60;92.60;;;;;;5034127;28;20981;-50
2023/05/07 10:48:08;;;;;;;2.77;2.53;;;16.90;92.90;;;;;;5034148;28;20452;-50
2023/05/07 10:50:36;;;;;;;2.30;2.00;;;16.70;92.50;;;;;;5052006;28;20841;-51
2023/05/07 10:53:27;;;;;;;2.57;2.17;;;16.80;92.80;;;;;;5034193;28;20894;-51
2023/05/07 10:56:27;;;;;;;2.77;2.20;;;16.70;92.30;;;;;;5034577;28;20858;-50
2023/05/07 10:59:31;;;;;;;3.87;2.10;;;16.80;92.20;;;;;;5034071;28;20460;-51
2023/05/07 11:02:07;;;;;;;5.00;2.70;;;16.90;91.80;;;;;;5034656;28;21003;-50
2023/05/07 11:05:06;;;;;;;2.10;1.80;;;17.10;91.70;;;;;;5034268;28;20475;-51
2023/05/07 11:07:36;;;;;;;4.13;2.10;;;16.70;91.10;;;;;;5033465;28;20431;-51
2023/05/07 11:10:11;;;;;;;3.37;2.10;;;16.80;90.90;;;;;;5033769;28;20842;-50
2023/05/07 11:12:48;;;;;;;4.90;2.57;;;16.90;91.20;;;;;;5034156;28;20453;-51
2023/05/07 11:15:44;;;;;;;2.90;2.20;;;16.30;90.90;;;;;;5034234;28;20465;-53
2023/05/07 11:18:21;;;;;;;4.73;2.70;;;16.70;91.00;;;;;;5033244;28;20426;-51
2023/05/07 11:20:58;;;;;;;4.30;2.40;;;16.90;91.60;;;;;;5033472;28;20480;-51
2023/05/07 11:24:11;;;;;;;4.13;2.50;;;16.20;91.50;;;;;;5051857;28;20451;-52
2023/05/07 11:26:55;;;;;;;3.60;2.50;;;16.50;91.00;;;;;;5033735;28;20842;-51
2023/05/07 11:29:25;;;;;;;3.43;2.00;;;16.20;91.40;;;;;;5033173;28;20452;-51
2023/05/07 11:31:58;;;;;;;3.40;2.10;;;16.30;91.00;;;;;;5033471;28;20451;-51
2023/05/07 11:34:29;;;;;;;4.97;2.53;;;16.20;91.00;;;;;;5033381;28;20974;-51
2023/05/07 11:36:59;;;;;;;2.23;2.03;;;16.40;90.70;;;;;;5051719;28;20406;-51
2023/05/07 11:39:40;;;;;;;3.37;2.40;;;16.70;90.60;;;;;;5055822;23;20904;-53
2023/05/07 11:42:07;;;;;;;3.03;2.10;;;16.80;90.60;;;;;;5051404;28;20460;-55
2023/05/07 11:44:45;;;;;;;4.63;2.30;;;16.80;90.50;;;;;;5033293;28;20543;-54
2023/05/07 11:47:17;;;;;;;4.50;2.67;;;17.00;90.40;;;;;;5050774;28;20448;-55
2023/05/07 11:49:44;;;;;;;2.70;2.40;;;16.70;90.20;;;;;;5050592;28;20455;-54
2023/05/07 11:52:11;;;;;;;3.07;2.33;;;17.20;90.20;;;;;;5051063;28;20885;-54
2023/05/07 11:54:38;;;;;;;2.90;2.60;;;17.30;89.70;;;;;;5050897;28;20493;-53
2023/05/07 11:57:07;;;;;;;3.10;2.13;;;17.20;89.10;;;;;;5051300;28;20837;-54
2023/05/07 11:59:39;;;;;;;3.07;2.50;;;17.30;88.50;;;;;;5050382;28;20913;-53
2023/05/07 12:02:07;;;;;;;3.53;2.07;;;17.70;89.20;;;;;;5051253;28;20490;-54
2023/05/07 12:04:33;;;;;;;2.70;1.90;;;17.20;88.30;;;;;;5050504;28;20459;-54
2023/05/07 12:07:00;;;;;;;2.67;2.10;;;17.40;88.10;;;;;;5050982;28;20445;-54
2023/05/07 12:09:27;;;;;;;4.13;2.07;;;17.20;87.90;;;;;;5050212;28;20513;-54
2023/05/07 12:11:55;;;;;;;4.63;2.23;;;17.30;88.30;;;;;;5050920;28;20436;-55
2023/05/07 12:14:28;;;;;;;3.20;2.20;;;17.10;87.20;;;;;;5050828;28;20842;-54
2023/05/07 12:16:55;;;;;;;3.60;2.20;;;17.40;87.20;;;;;;5051034;28;20422;-53
2023/05/07 12:19:22;;;;;;;3.03;1.80;;;16.80;87.00;;;;;;5050400;28;20802;-53
2023/05/07 12:21:49;;;;;;;3.10;2.00;;;16.80;87.40;;;;;;5050725;28;20415;-54
2023/05/07 12:24:15;;;;;;;3.30;2.23;;;16.90;88.10;;;;;;5050626;28;20441;-54
2023/05/07 12:26:42;;;;;;;2.73;1.67;;;16.50;87.70;;;;;;5050799;28;20439;-54
2023/05/07 12:29:09;;;;;;;4.63;2.40;;;16.40;88.00;;;;;;5050274;28;20810;-53
2023/05/07 12:31:37;;;;;;;3.67;2.50;;;16.70;88.90;;;;;;5053814;28;20407;-53
2023/05/07 12:34:04;;;;;;;5.93;2.10;;;16.70;88.70;;;;;;5054447;28;20813;-53
2023/05/07 12:36:38;;;;;;;2.10;1.90;;;16.70;87.90;;;;;;5054231;28;20436;-54
2023/05/07 12:39:05;;;;;;;3.07;2.50;;;17.00;87.90;;;;;;5054621;28;20778;-53
2023/05/07 12:41:37;;;;;;;2.50;1.93;;;16.90;88.10;;;;;;5054314;28;20440;-54
2023/05/07 12:44:05;;;;;;;3.43;2.37;;;16.70;87.50;;;;;;5054224;28;20402;-53
2023/05/07 12:46:32;;;;;;;3.30;2.20;;;16.60;87.40;;;;;;5054215;28;20534;-53
2023/05/07 12:49:01;;;;;;;6.60;2.17;;;16.50;87.10;;;;;;5035716;28;20796;-54